This is the latest recevied weather packets stored in our database for station/object LRBC. If no packets are shown the sender has not sent any weather packets the latest 10 day(s).
| Time | Temp. | Humidity | Pressure | Rain* | Wind** | Luminosity | Snow |
|---|---|---|---|---|---|---|---|
| 1777740525 | 12.22° C | 41% | 1022 hPa | - | - | - | - |
| 1777738727 | 12.22° C | 41% | 1022 hPa | - | - | - | - |
| 1777737828 | 12.22° C | 41% | 1022 hPa | - | - | - | - |
| 1777736933 | 12.22° C | 41% | 1022 hPa | - | - | - | - |
| 1777736028 | 12.22° C | 41% | 1022 hPa | - | - | - | - |
| 1777735127 | 12.78° C | 38% | 1023 hPa | - | - | - | - |
| 1777734227 | 12.78° C | 38% | 1023 hPa | - | - | - | - |
| 1777733327 | 13.89° C | 41% | 1023 hPa | - | - | - | - |
| 1777732427 | 13.89° C | 41% | 1023 hPa | - | - | - | - |
| 1777731525 | 12.22° C | 44% | 1023 hPa | - | - | - | - |
| 1777730628 | 12.22° C | 44% | 1023 hPa | - | - | - | - |
| 1777729724 | 12.78° C | 44% | 1023 hPa | - | - | - | - |
| 1777728828 | 12.78° C | 44% | 1023 hPa | - | - | - | - |
| 1777727927 | 12.78° C | 44% | 1023 hPa | - | - | - | - |
| 1777726128 | 12.22° C | 51% | 1023 hPa | - | - | - | - |
| 1777725227 | 12.22° C | 51% | 1023 hPa | - | - | - | - |
| 1777724327 | 11.11° C | 54% | 1024 hPa | - | - | - | - |
| 1777723435 | 11.11° C | 54% | 1024 hPa | - | - | - | - |
| 1777722521 | 11.11° C | 62% | 1024 hPa | - | - | - | - |
| 1777721627 | 11.11° C | 62% | 1024 hPa | - | - | - | - |
| 1777720727 | 10° C | 71% | 1024 hPa | - | - | - | - |
| 1777719827 | 10° C | 71% | 1024 hPa | - | - | - | - |
| 1777718927 | 11.11° C | 62% | 1024 hPa | - | - | - | - |
| 1777718028 | 11.11° C | 62% | 1024 hPa | - | - | - | - |
| 1777717124 | 10° C | 71% | 1024 hPa | - | - | - | - |
* Rain since midnight (hover to see other rain measurements)
** Current wind speed in m/s (hover to see current wind gust speed)